sensor_id;sensor_type;location;lat;lon;timestamp;pressure;altitude;pressure_sealevel;temperature;humidity
37132;BME280;23035;50.032;21.978;2022-10-31T00:03:36;66485.66;;;12.53;100.00
37132;BME280;23035;50.032;21.978;2022-10-31T00:08:40;66486.13;;;12.51;100.00
37132;BME280;23035;50.032;21.978;2022-10-31T00:13:46;66508.13;;;12.72;100.00
37132;BME280;23035;50.032;21.978;2022-10-31T00:18:51;66530.78;;;12.96;100.00
37132;BME280;23035;50.032;21.978;2022-10-31T00:23:55;66474.31;;;12.40;100.00
37132;BME280;23035;50.032;21.978;2022-10-31T00:29:02;66462.41;;;12.26;100.00
37132;BME280;23035;50.032;21.978;2022-10-31T00:34:06;66457.72;;;12.26;100.00
37132;BME280;23035;50.032;21.978;2022-10-31T00:39:10;66494.63;;;12.56;100.00
37132;BME280;23035;50.032;21.978;2022-10-31T00:44:16;66409.84;;;11.78;100.00
37132;BME280;23035;50.032;21.978;2022-10-31T00:49:21;66447.97;;;12.15;100.00
37132;BME280;23035;50.032;21.978;2022-10-31T00:54:25;66394.97;;;11.69;100.00
37132;BME280;23035;50.032;21.978;2022-10-31T00:59:31;66453.91;;;12.20;100.00
37132;BME280;23035;50.032;21.978;2022-10-31T01:04:37;66453.34;;;12.20;100.00
37132;BME280;23035;50.032;21.978;2022-10-31T01:09:41;66426.13;;;11.99;100.00
37132;BME280;23035;50.032;21.978;2022-10-31T01:14:46;66425.59;;;11.98;100.00
37132;BME280;23035;50.032;21.978;2022-10-31T01:19:53;66427.50;;;11.93;100.00
37132;BME280;23035;50.032;21.978;2022-10-31T01:24:57;66448.06;;;12.17;100.00
37132;BME280;23035;50.032;21.978;2022-10-31T01:30:05;66469.09;;;12.40;100.00
37132;BME280;23035;50.032;21.978;2022-10-31T01:35:10;66479.06;;;12.42;100.00
37132;BME280;23035;50.032;21.978;2022-10-31T01:40:14;66432.84;;;11.98;100.00
37132;BME280;23035;50.032;21.978;2022-10-31T01:45:19;66408.88;;;11.80;100.00
37132;BME280;23035;50.032;21.978;2022-10-31T01:50:28;66382.09;;;11.57;100.00
37132;BME280;23035;50.032;21.978;2022-10-31T01:55:36;66427.22;;;12.00;100.00
37132;BME280;23035;50.032;21.978;2022-10-31T02:00:46;66441.53;;;12.09;100.00
37132;BME280;23035;50.032;21.978;2022-10-31T02:05:53;66384.06;;;11.54;100.00
37132;BME280;23035;50.032;21.978;2022-10-31T02:11:00;66332.19;;;11.10;100.00
37132;BME280;23035;50.032;21.978;2022-10-31T02:16:08;66399.28;;;11.73;100.00
37132;BME280;23035;50.032;21.978;2022-10-31T02:21:17;66347.56;;;11.19;100.00
37132;BME280;23035;50.032;21.978;2022-10-31T02:26:46;66406.09;;;11.75;100.00
37132;BME280;23035;50.032;21.978;2022-10-31T02:31:59;66415.84;;;11.87;100.00
37132;BME280;23035;50.032;21.978;2022-10-31T02:37:10;66488.09;;;12.48;100.00
37132;BME280;23035;50.032;21.978;2022-10-31T02:42:24;66494.72;;;12.59;100.00
37132;BME280;23035;50.032;21.978;2022-10-31T02:47:37;66501.22;;;12.68;100.00
37132;BME280;23035;50.032;21.978;2022-10-31T02:52:41;66430.34;;;12.00;100.00
37132;BME280;23035;50.032;21.978;2022-10-31T02:57:45;66305.72;;;10.80;100.00
37132;BME280;23035;50.032;21.978;2022-10-31T03:02:58;66337.47;;;11.12;100.00
37132;BME280;23035;50.032;21.978;2022-10-31T03:08:14;66374.56;;;11.50;100.00
37132;BME280;23035;50.032;21.978;2022-10-31T03:13:33;66393.28;;;11.65;100.00
37132;BME280;23035;50.032;21.978;2022-10-31T03:18:41;66406.63;;;11.75;100.00
37132;BME280;23035;50.032;21.978;2022-10-31T03:23:49;66393.28;;;11.65;100.00
37132;BME280;23035;50.032;21.978;2022-10-31T03:28:58;66368.13;;;11.44;100.00
37132;BME280;23035;50.032;21.978;2022-10-31T03:34:06;66444.75;;;12.12;100.00
37132;BME280;23035;50.032;21.978;2022-10-31T03:39:14;66425.06;;;11.98;100.00
37132;BME280;23035;50.032;21.978;2022-10-31T03:44:22;66360.47;;;11.32;100.00
37132;BME280;23035;50.032;21.978;2022-10-31T03:49:35;66339.53;;;11.12;100.00
37132;BME280;23035;50.032;21.978;2022-10-31T03:54:43;66295.19;;;10.75;100.00
37132;BME280;23035;50.032;21.978;2022-10-31T03:59:51;66400.81;;;11.72;100.00
37132;BME280;23035;50.032;21.978;2022-10-31T04:05:00;66357.94;;;11.34;100.00
37132;BME280;23035;50.032;21.978;2022-10-31T04:10:08;66362.06;;;11.33;100.00
37132;BME280;23035;50.032;21.978;2022-10-31T04:15:17;66346.97;;;11.16;100.00
37132;BME280;23035;50.032;21.978;2022-10-31T04:20:32;66350.81;;;11.23;100.00
37132;BME280;23035;50.032;21.978;2022-10-31T04:25:36;66340.22;;;11.17;100.00
37132;BME280;23035;50.032;21.978;2022-10-31T04:30:40;66335.78;;;11.08;100.00
37132;BME280;23035;50.032;21.978;2022-10-31T04:35:46;66359.41;;;11.31;100.00
37132;BME280;23035;50.032;21.978;2022-10-31T04:40:50;66295.00;;;10.70;100.00
37132;BME280;23035;50.032;21.978;2022-10-31T04:46:15;66281.59;;;10.57;100.00
37132;BME280;23035;50.032;21.978;2022-10-31T04:51:20;66307.97;;;10.84;100.00
37132;BME280;23035;50.032;21.978;2022-10-31T04:56:24;66305.28;;;10.82;100.00
37132;BME280;23035;50.032;21.978;2022-10-31T05:01:33;66271.03;;;10.52;100.00
37132;BME280;23035;50.032;21.978;2022-10-31T05:06:38;66283.75;;;10.59;100.00
37132;BME280;23035;50.032;21.978;2022-10-31T05:11:43;66316.44;;;10.90;100.00
37132;BME280;23035;50.032;21.978;2022-10-31T05:17:13;66334.25;;;11.09;100.00
37132;BME280;23035;50.032;21.978;2022-10-31T05:22:55;66426.03;;;11.96;100.00
37132;BME280;23035;50.032;21.978;2022-10-31T05:27:59;66345.50;;;11.20;100.00
37132;BME280;23035;50.032;21.978;2022-10-31T05:33:04;66349.28;;;11.24;100.00
37132;BME280;23035;50.032;21.978;2022-10-31T05:38:27;66309.84;;;10.79;100.00
37132;BME280;23035;50.032;21.978;2022-10-31T05:43:36;66307.34;;;10.81;100.00
37132;BME280;23035;50.032;21.978;2022-10-31T05:48:41;66379.22;;;11.49;100.00
37132;BME280;23035;50.032;21.978;2022-10-31T05:54:06;66504.91;;;12.69;100.00
37132;BME280;23035;50.032;21.978;2022-10-31T05:59:17;66491.03;;;12.58;100.00
37132;BME280;23035;50.032;21.978;2022-10-31T06:04:22;66538.75;;;13.01;100.00
37132;BME280;23035;50.032;21.978;2022-10-31T06:09:28;66491.66;;;12.61;100.00
37132;BME280;23035;50.032;21.978;2022-10-31T06:14:32;66351.97;;;11.26;100.00
37132;BME280;23035;50.032;21.978;2022-10-31T06:19:38;66397.13;;;11.71;100.00
37132;BME280;23035;50.032;21.978;2022-10-31T06:24:45;66369.66;;;11.43;100.00
37132;BME280;23035;50.032;21.978;2022-10-31T06:30:01;66456.03;;;12.22;100.00
37132;BME280;23035;50.032;21.978;2022-10-31T06:35:07;66450.84;;;12.22;100.00
37132;BME280;23035;50.032;21.978;2022-10-31T06:40:13;66509.28;;;12.75;100.00
37132;BME280;23035;50.032;21.978;2022-10-31T06:45:47;66603.44;;;13.67;100.00
37132;BME280;23035;50.032;21.978;2022-10-31T06:50:51;66653.28;;;14.09;100.00
37132;BME280;23035;50.032;21.978;2022-10-31T06:56:02;66668.34;;;14.23;100.00
37132;BME280;23035;50.032;21.978;2022-10-31T07:01:13;66564.03;;;13.25;100.00
37132;BME280;23035;50.032;21.978;2022-10-31T07:06:18;66627.94;;;13.83;100.00
37132;BME280;23035;50.032;21.978;2022-10-31T07:11:23;66558.22;;;13.22;100.00
37132;BME280;23035;50.032;21.978;2022-10-31T07:16:30;66609.81;;;13.70;100.00
37132;BME280;23035;50.032;21.978;2022-10-31T07:21:34;66735.16;;;14.89;100.00
37132;BME280;23035;50.032;21.978;2022-10-31T07:26:41;66709.41;;;14.67;100.00
37132;BME280;23035;50.032;21.978;2022-10-31T07:31:51;66737.38;;;14.93;100.00
37132;BME280;23035;50.032;21.978;2022-10-31T07:37:00;66730.91;;;14.87;100.00
37132;BME280;23035;50.032;21.978;2022-10-31T07:42:06;66774.91;;;15.24;100.00
37132;BME280;23035;50.032;21.978;2022-10-31T07:47:12;66745.97;;;15.02;100.00
37132;BME280;23035;50.032;21.978;2022-10-31T07:52:37;66668.44;;;14.26;100.00
37132;BME280;23035;50.032;21.978;2022-10-31T07:58:07;66780.97;;;15.35;100.00
37132;BME280;23035;50.032;21.978;2022-10-31T08:03:16;66796.50;;;15.47;100.00
37132;BME280;23035;50.032;21.978;2022-10-31T08:08:39;66765.81;;;15.18;100.00
37132;BME280;23035;50.032;21.978;2022-10-31T08:13:46;66759.44;;;15.14;100.00
37132;BME280;23035;50.032;21.978;2022-10-31T08:18:50;66811.59;;;15.61;100.00
37132;BME280;23035;50.032;21.978;2022-10-31T08:23:56;66845.53;;;15.93;100.00
37132;BME280;23035;50.032;21.978;2022-10-31T08:29:03;66854.13;;;16.01;100.00
37132;BME280;23035;50.032;21.978;2022-10-31T08:34:10;66833.13;;;15.82;100.00
37132;BME280;23035;50.032;21.978;2022-10-31T08:39:32;66719.00;;;14.74;100.00
37132;BME280;23035;50.032;21.978;2022-10-31T08:44:38;66835.28;;;15.84;100.00
37132;BME280;23035;50.032;21.978;2022-10-31T08:49:42;66917.22;;;16.63;100.00
37132;BME280;23035;50.032;21.978;2022-10-31T08:54:49;66814.66;;;15.59;100.00
37132;BME280;23035;50.032;21.978;2022-10-31T09:00:14;66873.50;;;16.20;100.00
37132;BME280;23035;50.032;21.978;2022-10-31T09:05:33;66896.66;;;16.42;100.00
37132;BME280;23035;50.032;21.978;2022-10-31T09:10:38;66965.06;;;17.04;100.00
37132;BME280;23035;50.032;21.978;2022-10-31T09:15:46;66933.94;;;16.79;100.00
37132;BME280;23035;50.032;21.978;2022-10-31T09:20:59;66799.13;;;15.47;100.00
37132;BME280;23035;50.032;21.978;2022-10-31T09:26:09;66788.50;;;15.42;100.00
37132;BME280;23035;50.032;21.978;2022-10-31T09:31:18;66944.72;;;16.89;100.00
37132;BME280;23035;50.032;21.978;2022-10-31T09:36:36;67043.78;;;17.78;100.00
37132;BME280;23035;50.032;21.978;2022-10-31T09:42:09;66922.38;;;16.61;100.00
37132;BME280;23035;50.032;21.978;2022-10-31T09:47:40;67010.41;;;17.49;100.00
37132;BME280;23035;50.032;21.978;2022-10-31T09:53:22;67021.19;;;17.59;100.00
37132;BME280;23035;50.032;21.978;2022-10-31T09:58:29;66983.59;;;17.29;100.00
37132;BME280;23035;50.032;21.978;2022-10-31T10:03:43;67031.53;;;17.71;100.00
37132;BME280;23035;50.032;21.978;2022-10-31T10:09:20;66949.50;;;16.91;100.00
37132;BME280;23035;50.032;21.978;2022-10-31T10:15:00;66952.19;;;16.94;100.00
37132;BME280;23035;50.032;21.978;2022-10-31T10:20:25;66985.59;;;17.26;100.00
37132;BME280;23035;50.032;21.978;2022-10-31T10:25:34;67054.09;;;17.90;100.00
37132;BME280;23035;50.032;21.978;2022-10-31T10:30:44;67165.72;;;18.93;97.53
37132;BME280;23035;50.032;21.978;2022-10-31T10:35:53;67160.34;;;18.88;98.46
37132;BME280;23035;50.032;21.978;2022-10-31T10:41:03;67194.94;;;19.23;95.91
37132;BME280;23035;50.032;21.978;2022-10-31T10:46:17;67090.78;;;18.25;99.62
37132;BME280;23035;50.032;21.978;2022-10-31T10:51:45;67159.16;;;18.84;100.00
37132;BME280;23035;50.032;21.978;2022-10-31T11:02:34;67194.28;;;19.17;98.59
37132;BME280;23035;50.032;21.978;2022-10-31T11:07:40;67173.28;;;19.00;97.66
37132;BME280;23035;50.032;21.978;2022-10-31T11:12:44;67101.03;;;18.34;100.00
37132;BME280;23035;50.032;21.978;2022-10-31T11:17:50;67177.66;;;19.07;100.00
37132;BME280;23035;50.032;21.978;2022-10-31T11:23:04;67272.63;;;19.94;91.98
37132;BME280;23035;50.032;21.978;2022-10-31T11:28:09;67244.09;;;19.69;94.73
37132;BME280;23035;50.032;21.978;2022-10-31T11:33:20;67221.84;;;19.46;94.16
37132;BME280;23035;50.032;21.978;2022-10-31T11:38:32;67264.13;;;19.91;90.96
37132;BME280;23035;50.032;21.978;2022-10-31T11:43:38;67284.59;;;20.08;94.05
37132;BME280;23035;50.032;21.978;2022-10-31T11:48:46;67524.69;;;22.36;78.32
37132;BME280;23035;50.032;21.978;2022-10-31T11:53:54;67559.13;;;22.61;74.66
37132;BME280;23035;50.032;21.978;2022-10-31T11:59:06;67625.28;;;23.28;72.19
37132;BME280;23035;50.032;21.978;2022-10-31T12:04:18;67646.38;;;23.48;70.24
37132;BME280;23035;50.032;21.978;2022-10-31T12:09:29;67741.72;;;24.38;66.34
37132;BME280;23035;50.032;21.978;2022-10-31T12:14:44;67699.56;;;24.03;66.52
37132;BME280;23035;50.032;21.978;2022-10-31T12:20:00;67780.72;;;24.74;64.32
37132;BME280;23035;50.032;21.978;2022-10-31T12:25:19;67667.50;;;23.68;68.72
37132;BME280;23035;50.032;21.978;2022-10-31T12:30:40;67697.75;;;23.91;67.29
37132;BME280;23035;50.032;21.978;2022-10-31T12:35:50;67736.84;;;24.33;66.74
37132;BME280;23035;50.032;21.978;2022-10-31T12:41:22;67717.38;;;24.17;66.42
37132;BME280;23035;50.032;21.978;2022-10-31T12:46:40;67678.94;;;23.81;68.21
37132;BME280;23035;50.032;21.978;2022-10-31T12:51:55;67654.09;;;23.60;68.65
37132;BME280;23035;50.032;21.978;2022-10-31T12:57:12;67640.94;;;23.40;70.78
37132;BME280;23035;50.032;21.978;2022-10-31T13:02:26;67775.88;;;24.70;65.58
37132;BME280;23035;50.032;21.978;2022-10-31T13:07:35;67858.78;;;25.48;62.79
37132;BME280;23035;50.032;21.978;2022-10-31T13:12:43;67810.56;;;25.02;63.39
37132;BME280;23035;50.032;21.978;2022-10-31T13:17:52;67726.00;;;24.23;66.44
37132;BME280;23035;50.032;21.978;2022-10-31T13:23:04;67699.94;;;23.96;69.33
37132;BME280;23035;50.032;21.978;2022-10-31T13:28:35;67748.78;;;24.44;66.05
37132;BME280;23035;50.032;21.978;2022-10-31T13:33:44;67738.91;;;24.30;67.07
37132;BME280;23035;50.032;21.978;2022-10-31T13:38:52;67849.63;;;25.41;61.91
37132;BME280;23035;50.032;21.978;2022-10-31T13:44:03;67793.13;;;24.83;65.18
37132;BME280;23035;50.032;21.978;2022-10-31T13:49:36;67756.84;;;24.49;66.85
37132;BME280;23035;50.032;21.978;2022-10-31T13:54:45;67712.47;;;24.10;68.24
37132;BME280;23035;50.032;21.978;2022-10-31T13:59:54;67780.69;;;24.72;65.18
37132;BME280;23035;50.032;21.978;2022-10-31T14:05:00;67706.56;;;24.07;67.42
37132;BME280;23035;50.032;21.978;2022-10-31T14:10:07;67727.09;;;24.24;66.35
37132;BME280;23035;50.032;21.978;2022-10-31T14:15:26;67651.22;;;23.50;69.55
37132;BME280;23035;50.032;21.978;2022-10-31T14:20:37;67529.53;;;22.41;75.02
37132;BME280;23035;50.032;21.978;2022-10-31T14:25:41;67517.09;;;22.29;75.66
37132;BME280;23035;50.032;21.978;2022-10-31T14:30:53;67505.19;;;22.18;75.44
37132;BME280;23035;50.032;21.978;2022-10-31T14:36:01;67608.03;;;23.14;72.08
37132;BME280;23035;50.032;21.978;2022-10-31T14:41:25;67621.44;;;23.22;69.73
37132;BME280;23035;50.032;21.978;2022-10-31T14:46:44;67481.81;;;21.91;75.58
37132;BME280;23035;50.032;21.978;2022-10-31T14:51:52;67425.63;;;21.40;79.68
37132;BME280;23035;50.032;21.978;2022-10-31T15:01:54;67324.50;;;20.43;86.76
37132;BME280;23035;50.032;21.978;2022-10-31T15:07:04;67188.38;;;19.14;96.12
37132;BME280;23035;50.032;21.978;2022-10-31T15:12:23;67095.56;;;18.27;100.00
37132;BME280;23035;50.032;21.978;2022-10-31T15:17:28;67009.84;;;17.48;100.00
37132;BME280;23035;50.032;21.978;2022-10-31T15:22:32;67028.72;;;17.66;100.00
37132;BME280;23035;50.032;21.978;2022-10-31T15:27:40;67023.88;;;17.62;100.00
37132;BME280;23035;50.032;21.978;2022-10-31T15:32:45;66979.81;;;17.25;100.00
37132;BME280;23035;50.032;21.978;2022-10-31T15:37:59;66923.53;;;16.64;100.00
37132;BME280;23035;50.032;21.978;2022-10-31T15:43:05;66904.28;;;16.51;100.00
37132;BME280;23035;50.032;21.978;2022-10-31T15:48:16;66882.66;;;16.28;100.00
37132;BME280;23035;50.032;21.978;2022-10-31T15:53:23;66911.69;;;16.53;100.00
37132;BME280;23035;50.032;21.978;2022-10-31T15:58:30;66902.66;;;16.50;100.00
37132;BME280;23035;50.032;21.978;2022-10-31T16:03:37;66912.84;;;16.57;100.00
37132;BME280;23035;50.032;21.978;2022-10-31T16:08:45;66926.22;;;16.67;100.00
37132;BME280;23035;50.032;21.978;2022-10-31T16:13:54;66881.59;;;16.27;100.00
37132;BME280;23035;50.032;21.978;2022-10-31T16:19:01;66812.66;;;15.62;100.00
37132;BME280;23035;50.032;21.978;2022-10-31T16:24:15;66808.97;;;15.61;100.00
37132;BME280;23035;50.032;21.978;2022-10-31T16:29:31;66856.81;;;16.04;100.00
37132;BME280;23035;50.032;21.978;2022-10-31T16:34:37;66858.03;;;16.10;100.00
37132;BME280;23035;50.032;21.978;2022-10-31T16:39:41;66815.81;;;15.63;100.00
37132;BME280;23035;50.032;21.978;2022-10-31T16:44:46;66774.97;;;15.27;100.00
37132;BME280;23035;50.032;21.978;2022-10-31T16:49:52;66761.50;;;15.14;100.00
37132;BME280;23035;50.032;21.978;2022-10-31T16:54:56;66741.59;;;14.95;100.00
37132;BME280;23035;50.032;21.978;2022-10-31T17:00:01;66778.19;;;15.30;100.00
37132;BME280;23035;50.032;21.978;2022-10-31T17:05:09;66819.59;;;15.66;100.00
37132;BME280;23035;50.032;21.978;2022-10-31T17:10:15;66780.81;;;15.30;100.00
37132;BME280;23035;50.032;21.978;2022-10-31T17:15:22;66795.03;;;15.50;100.00
37132;BME280;23035;50.032;21.978;2022-10-31T17:20:30;66745.91;;;14.99;100.00
37132;BME280;23035;50.032;21.978;2022-10-31T17:25:34;66736.06;;;14.85;100.00
37132;BME280;23035;50.032;21.978;2022-10-31T17:30:39;66716.25;;;14.69;100.00
37132;BME280;23035;50.032;21.978;2022-10-31T17:35:44;66712.56;;;14.68;100.00
37132;BME280;23035;50.032;21.978;2022-10-31T17:40:48;66680.25;;;14.37;100.00
37132;BME280;23035;50.032;21.978;2022-10-31T17:45:52;66687.69;;;14.42;100.00
37132;BME280;23035;50.032;21.978;2022-10-31T17:51:00;66629.06;;;13.86;100.00
37132;BME280;23035;50.032;21.978;2022-10-31T17:56:06;66663.56;;;14.21;100.00
37132;BME280;23035;50.032;21.978;2022-10-31T18:01:15;66668.88;;;14.24;100.00
37132;BME280;23035;50.032;21.978;2022-10-31T18:06:21;66631.84;;;13.91;100.00
37132;BME280;23035;50.032;21.978;2022-10-31T18:11:25;66634.94;;;13.89;100.00
37132;BME280;23035;50.032;21.978;2022-10-31T18:16:29;66688.16;;;14.40;100.00
37132;BME280;23035;50.032;21.978;2022-10-31T18:21:34;66588.22;;;13.47;100.00
37132;BME280;23035;50.032;21.978;2022-10-31T18:26:39;66595.28;;;13.57;100.00
37132;BME280;23035;50.032;21.978;2022-10-31T18:31:43;66589.91;;;13.52;100.00
37132;BME280;23035;50.032;21.978;2022-10-31T18:36:51;66528.56;;;12.91;100.00
37132;BME280;23035;50.032;21.978;2022-10-31T18:41:55;66585.16;;;13.49;100.00
37132;BME280;23035;50.032;21.978;2022-10-31T18:46:59;66644.59;;;13.98;100.00
37132;BME280;23035;50.032;21.978;2022-10-31T18:52:04;66589.31;;;13.48;100.00
37132;BME280;23035;50.032;21.978;2022-10-31T18:57:08;66564.09;;;13.27;100.00
37132;BME280;23035;50.032;21.978;2022-10-31T19:02:13;66548.97;;;13.10;100.00
37132;BME280;23035;50.032;21.978;2022-10-31T19:07:20;66545.19;;;13.07;100.00
37132;BME280;23035;50.032;21.978;2022-10-31T19:12:24;66518.41;;;12.84;100.00
37132;BME280;23035;50.032;21.978;2022-10-31T19:17:28;66503.84;;;12.68;100.00
37132;BME280;23035;50.032;21.978;2022-10-31T19:22:34;66506.69;;;12.75;100.00
37132;BME280;23035;50.032;21.978;2022-10-31T19:27:38;66509.81;;;12.76;100.00
37132;BME280;23035;50.032;21.978;2022-10-31T19:32:42;66479.75;;;12.47;100.00
37132;BME280;23035;50.032;21.978;2022-10-31T19:37:47;66476.59;;;12.47;100.00
37132;BME280;23035;50.032;21.978;2022-10-31T19:42:51;66502.22;;;12.66;100.00
37132;BME280;23035;50.032;21.978;2022-10-31T19:47:55;66461.56;;;12.32;100.00
37132;BME280;23035;50.032;21.978;2022-10-31T19:53:01;66487.19;;;12.52;100.00
37132;BME280;23035;50.032;21.978;2022-10-31T19:58:07;66525.25;;;12.85;100.00
37132;BME280;23035;50.032;21.978;2022-10-31T20:03:11;66544.75;;;13.09;100.00
37132;BME280;23035;50.032;21.978;2022-10-31T20:08:24;66545.75;;;13.07;100.00
37132;BME280;23035;50.032;21.978;2022-10-31T20:13:29;66526.31;;;12.86;100.00
37132;BME280;23035;50.032;21.978;2022-10-31T20:18:34;66515.13;;;12.78;100.00
37132;BME280;23035;50.032;21.978;2022-10-31T20:23:40;66481.91;;;12.49;100.00
37132;BME280;23035;50.032;21.978;2022-10-31T20:28:44;66391.13;;;11.63;100.00
37132;BME280;23035;50.032;21.978;2022-10-31T20:33:49;66387.22;;;11.55;100.00
37132;BME280;23035;50.032;21.978;2022-10-31T20:38:54;66456.13;;;12.25;100.00
37132;BME280;23035;50.032;21.978;2022-10-31T20:43:58;66487.25;;;12.54;100.00
37132;BME280;23035;50.032;21.978;2022-10-31T20:49:02;66540.91;;;13.03;100.00
37132;BME280;23035;50.032;21.978;2022-10-31T20:54:11;66524.78;;;12.87;100.00
37132;BME280;23035;50.032;21.978;2022-10-31T20:59:16;66400.81;;;11.72;100.00
37132;BME280;23035;50.032;21.978;2022-10-31T21:04:21;66403.94;;;11.73;100.00
37132;BME280;23035;50.032;21.978;2022-10-31T21:09:26;66410.50;;;11.82;100.00
37132;BME280;23035;50.032;21.978;2022-10-31T21:14:31;66407.69;;;11.76;100.00
37132;BME280;23035;50.032;21.978;2022-10-31T21:19:35;66411.03;;;11.82;100.00
37132;BME280;23035;50.032;21.978;2022-10-31T21:24:40;66414.16;;;11.83;100.00
37132;BME280;23035;50.032;21.978;2022-10-31T21:29:45;66419.69;;;11.93;100.00
37132;BME280;23035;50.032;21.978;2022-10-31T21:34:49;66447.53;;;12.17;100.00
37132;BME280;23035;50.032;21.978;2022-10-31T21:39:54;66469.47;;;12.35;100.00
37132;BME280;23035;50.032;21.978;2022-10-31T21:44:58;66434.72;;;12.07;100.00
37132;BME280;23035;50.032;21.978;2022-10-31T21:50:02;66429.81;;;12.00;100.00
37132;BME280;23035;50.032;21.978;2022-10-31T21:55:08;66433.03;;;12.03;100.00
37132;BME280;23035;50.032;21.978;2022-10-31T22:00:13;66460.31;;;12.26;100.00
37132;BME280;23035;50.032;21.978;2022-10-31T22:05:17;66438.38;;;12.08;100.00
37132;BME280;23035;50.032;21.978;2022-10-31T22:10:22;66435.19;;;12.05;100.00
37132;BME280;23035;50.032;21.978;2022-10-31T22:15:27;66419.50;;;11.88;100.00
37132;BME280;23035;50.032;21.978;2022-10-31T22:20:31;66448.06;;;12.17;100.00
37132;BME280;23035;50.032;21.978;2022-10-31T22:25:36;66406.63;;;11.75;100.00
37132;BME280;23035;50.032;21.978;2022-10-31T22:30:43;66281.53;;;10.54;100.00
37132;BME280;23035;50.032;21.978;2022-10-31T22:35:47;66229.19;;;10.12;100.00
37132;BME280;23035;50.032;21.978;2022-10-31T22:40:56;66292.94;;;10.70;100.00
37132;BME280;23035;50.032;21.978;2022-10-31T22:46:01;66324.44;;;10.95;100.00
37132;BME280;23035;50.032;21.978;2022-10-31T22:51:11;66273.72;;;10.54;100.00
37132;BME280;23035;50.032;21.978;2022-10-31T22:56:19;66330.94;;;11.04;100.00
37132;BME280;23035;50.032;21.978;2022-10-31T23:01:25;66312.16;;;10.86;100.00
37132;BME280;23035;50.032;21.978;2022-10-31T23:06:31;66291.34;;;10.69;100.00
37132;BME280;23035;50.032;21.978;2022-10-31T23:11:37;66350.34;;;11.25;100.00
37132;BME280;23035;50.032;21.978;2022-10-31T23:16:44;66362.59;;;11.34;100.00
37132;BME280;23035;50.032;21.978;2022-10-31T23:21:50;66393.75;;;11.63;100.00
37132;BME280;23035;50.032;21.978;2022-10-31T23:27:02;66364.75;;;11.36;100.00
37132;BME280;23035;50.032;21.978;2022-10-31T23:32:16;66404.56;;;11.76;100.00
37132;BME280;23035;50.032;21.978;2022-10-31T23:37:22;66385.22;;;11.58;100.00
37132;BME280;23035;50.032;21.978;2022-10-31T23:42:28;66359.28;;;11.28;100.00
37132;BME280;23035;50.032;21.978;2022-10-31T23:47:33;66329.44;;;11.05;100.00
37132;BME280;23035;50.032;21.978;2022-10-31T23:52:42;66290.88;;;10.71;100.00
37132;BME280;23035;50.032;21.978;2022-10-31T23:57:48;66325.03;;;10.98;100.00
